sensor_id;sensor_type;location;lat;lon;timestamp;pressure;altitude;pressure_sealevel;temperature;humidity
80629;BME280;69983;42.370;-71.210;2023-08-01T00:01:41;101291.10;;;25.34;24.26
80629;BME280;69983;42.370;-71.210;2023-08-01T00:03:41;101292.40;;;25.06;24.40
80629;BME280;69983;42.370;-71.210;2023-08-01T00:05:41;101298.54;;;24.54;24.76
80629;BME280;69983;42.370;-71.210;2023-08-01T00:07:42;101299.31;;;23.96;24.70
80629;BME280;69983;42.370;-71.210;2023-08-01T00:09:42;101308.29;;;23.84;25.08
80629;BME280;69983;42.370;-71.210;2023-08-01T00:11:42;101300.99;;;23.25;24.15
80629;BME280;69983;42.370;-71.210;2023-08-01T00:13:43;101306.69;;;23.68;23.74
80629;BME280;69983;42.370;-71.210;2023-08-01T00:15:44;101307.81;;;24.88;22.76
80629;BME280;69983;42.370;-71.210;2023-08-01T00:17:45;101307.92;;;24.61;23.25
80629;BME280;69983;42.370;-71.210;2023-08-01T00:19:45;101306.73;;;25.13;22.51
80629;BME280;69983;42.370;-71.210;2023-08-01T00:21:45;101306.40;;;26.05;22.62
80629;BME280;69983;42.370;-71.210;2023-08-01T00:23:46;101308.14;;;25.02;23.55
80629;BME280;69983;42.370;-71.210;2023-08-01T00:25:46;101308.39;;;25.18;23.71
80629;BME280;69983;42.370;-71.210;2023-08-01T00:27:47;101304.75;;;25.33;23.69
80629;BME280;69983;42.370;-71.210;2023-08-01T00:29:47;101308.20;;;25.56;23.66
80629;BME280;69983;42.370;-71.210;2023-08-01T00:31:48;101310.04;;;25.65;23.71
80629;BME280;69983;42.370;-71.210;2023-08-01T00:33:48;101309.02;;;25.54;24.06
80629;BME280;69983;42.370;-71.210;2023-08-01T00:35:54;101315.22;;;25.43;24.02
80629;BME280;69983;42.370;-71.210;2023-08-01T00:37:49;101317.56;;;24.95;24.08
80629;BME280;69983;42.370;-71.210;2023-08-01T00:39:49;101323.61;;;24.42;24.33
80629;BME280;69983;42.370;-71.210;2023-08-01T00:41:49;101327.44;;;24.35;24.22
80629;BME280;69983;42.370;-71.210;2023-08-01T00:43:50;101324.53;;;24.94;24.00
80629;BME280;69983;42.370;-71.210;2023-08-01T00:45:59;101327.96;;;25.27;23.83
80629;BME280;69983;42.370;-71.210;2023-08-01T00:47:52;101330.06;;;25.58;23.69
80629;BME280;69983;42.370;-71.210;2023-08-01T00:49:52;101329.91;;;25.68;23.78
80629;BME280;69983;42.370;-71.210;2023-08-01T00:51:53;101331.72;;;25.01;24.04
80629;BME280;69983;42.370;-71.210;2023-08-01T00:53:53;101342.34;;;24.95;24.01
80629;BME280;69983;42.370;-71.210;2023-08-01T00:55:55;101345.49;;;24.58;24.13
80629;BME280;69983;42.370;-71.210;2023-08-01T00:57:54;101344.19;;;24.61;23.93
80629;BME280;69983;42.370;-71.210;2023-08-01T00:59:54;101351.09;;;24.72;24.31
80629;BME280;69983;42.370;-71.210;2023-08-01T01:01:54;101358.72;;;24.58;24.37
80629;BME280;69983;42.370;-71.210;2023-08-01T01:03:55;101361.26;;;24.96;24.41
80629;BME280;69983;42.370;-71.210;2023-08-01T01:06:01;101360.64;;;24.84;24.42
80629;BME280;69983;42.370;-71.210;2023-08-01T01:07:56;101366.63;;;24.83;24.40
80629;BME280;69983;42.370;-71.210;2023-08-01T01:09:57;101372.86;;;24.76;24.20
80629;BME280;69983;42.370;-71.210;2023-08-01T01:11:57;101372.60;;;24.48;24.21
80629;BME280;69983;42.370;-71.210;2023-08-01T01:13:57;101374.58;;;24.14;24.34
80629;BME280;69983;42.370;-71.210;2023-08-01T01:15:57;101380.57;;;24.46;24.64
80629;BME280;69983;42.370;-71.210;2023-08-01T01:17:58;101384.27;;;24.66;24.37
80629;BME280;69983;42.370;-71.210;2023-08-01T01:19:59;101387.20;;;24.73;24.45
80629;BME280;69983;42.370;-71.210;2023-08-01T01:21:59;101392.32;;;25.01;24.39
80629;BME280;69983;42.370;-71.210;2023-08-01T01:24:00;101395.14;;;24.96;24.31
80629;BME280;69983;42.370;-71.210;2023-08-01T01:26:01;101394.16;;;25.09;24.26
80629;BME280;69983;42.370;-71.210;2023-08-01T01:28:03;101399.94;;;24.95;24.23
80629;BME280;69983;42.370;-71.210;2023-08-01T01:30:02;101402.21;;;24.81;24.25
80629;BME280;69983;42.370;-71.210;2023-08-01T01:32:02;101404.74;;;24.45;24.19
80629;BME280;69983;42.370;-71.210;2023-08-01T01:34:03;101406.10;;;24.34;24.56
80629;BME280;69983;42.370;-71.210;2023-08-01T01:36:03;101405.91;;;24.56;24.37
80629;BME280;69983;42.370;-71.210;2023-08-01T01:38:04;101406.91;;;24.62;24.30
80629;BME280;69983;42.370;-71.210;2023-08-01T01:40:05;101404.53;;;24.36;24.44
80629;BME280;69983;42.370;-71.210;2023-08-01T01:42:05;101406.46;;;25.01;24.26
80629;BME280;69983;42.370;-71.210;2023-08-01T01:44:05;101406.81;;;25.20;24.24
80629;BME280;69983;42.370;-71.210;2023-08-01T01:46:06;101406.39;;;25.13;24.16
80629;BME280;69983;42.370;-71.210;2023-08-01T01:48:06;101410.61;;;24.70;24.22
80629;BME280;69983;42.370;-71.210;2023-08-01T01:50:07;101414.55;;;24.19;24.40
80629;BME280;69983;42.370;-71.210;2023-08-01T01:52:07;101415.96;;;23.85;24.41
80629;BME280;69983;42.370;-71.210;2023-08-01T01:54:08;101417.23;;;24.39;24.09
80629;BME280;69983;42.370;-71.210;2023-08-01T01:56:08;101418.53;;;24.43;24.18
80629;BME280;69983;42.370;-71.210;2023-08-01T01:58:09;101422.18;;;24.67;24.13
80629;BME280;69983;42.370;-71.210;2023-08-01T02:00:10;101426.84;;;24.79;24.18
80629;BME280;69983;42.370;-71.210;2023-08-01T02:02:09;101430.63;;;24.85;24.06
80629;BME280;69983;42.370;-71.210;2023-08-01T02:04:10;101434.26;;;25.12;24.17
80629;BME280;69983;42.370;-71.210;2023-08-01T02:06:10;101434.23;;;25.30;24.22
80629;BME280;69983;42.370;-71.210;2023-08-01T02:08:11;101441.31;;;24.87;24.08
80629;BME280;69983;42.370;-71.210;2023-08-01T02:10:11;101443.53;;;24.37;24.25
80629;BME280;69983;42.370;-71.210;2023-08-01T02:12:12;101446.75;;;24.46;24.10
80629;BME280;69983;42.370;-71.210;2023-08-01T02:14:13;101446.18;;;23.94;24.15
80629;BME280;69983;42.370;-71.210;2023-08-01T02:16:13;101446.68;;;24.78;24.17
80629;BME280;69983;42.370;-71.210;2023-08-01T02:18:13;101448.79;;;24.99;23.94
80629;BME280;69983;42.370;-71.210;2023-08-01T02:20:13;101446.23;;;24.88;23.99
80629;BME280;69983;42.370;-71.210;2023-08-01T02:22:14;101445.85;;;25.01;24.00
80629;BME280;69983;42.370;-71.210;2023-08-01T02:24:15;101444.70;;;24.99;24.12
80629;BME280;69983;42.370;-71.210;2023-08-01T02:26:15;101449.98;;;25.27;24.18
80629;BME280;69983;42.370;-71.210;2023-08-01T02:28:16;101452.78;;;25.10;23.79
80629;BME280;69983;42.370;-71.210;2023-08-01T02:30:16;101451.26;;;24.94;23.93
80629;BME280;69983;42.370;-71.210;2023-08-01T02:32:17;101452.78;;;24.92;23.89
80629;BME280;69983;42.370;-71.210;2023-08-01T02:34:17;101454.16;;;24.39;23.80
80629;BME280;69983;42.370;-71.210;2023-08-01T02:36:18;101456.07;;;24.19;23.80
80629;BME280;69983;42.370;-71.210;2023-08-01T02:38:18;101458.53;;;24.33;23.98
80629;BME280;69983;42.370;-71.210;2023-08-01T02:40:19;101464.14;;;24.55;23.91
80629;BME280;69983;42.370;-71.210;2023-08-01T02:42:20;101466.02;;;24.83;23.87
80629;BME280;69983;42.370;-71.210;2023-08-01T02:44:21;101469.16;;;24.89;23.98
80629;BME280;69983;42.370;-71.210;2023-08-01T02:46:21;101469.05;;;25.09;23.96
80629;BME280;69983;42.370;-71.210;2023-08-01T02:48:22;101471.14;;;24.82;24.18
80629;BME280;69983;42.370;-71.210;2023-08-01T02:50:22;101469.38;;;24.78;23.93
80629;BME280;69983;42.370;-71.210;2023-08-01T02:52:22;101467.48;;;24.71;23.75
80629;BME280;69983;42.370;-71.210;2023-08-01T02:54:23;101460.14;;;24.76;23.95
80629;BME280;69983;42.370;-71.210;2023-08-01T02:56:23;101457.53;;;24.38;24.22
80629;BME280;69983;42.370;-71.210;2023-08-01T02:58:23;101459.94;;;24.78;23.98
80629;BME280;69983;42.370;-71.210;2023-08-01T03:00:24;101460.50;;;24.62;24.03
80629;BME280;69983;42.370;-71.210;2023-08-01T03:02:25;101464.48;;;25.06;24.01
80629;BME280;69983;42.370;-71.210;2023-08-01T03:04:25;101463.98;;;25.14;23.91
80629;BME280;69983;42.370;-71.210;2023-08-01T03:06:25;101464.69;;;25.12;23.85
80629;BME280;69983;42.370;-71.210;2023-08-01T03:08:26;101466.10;;;25.34;23.93
80629;BME280;69983;42.370;-71.210;2023-08-01T03:10:26;101464.91;;;25.00;23.98
80629;BME280;69983;42.370;-71.210;2023-08-01T03:12:27;101463.19;;;24.92;23.97
80629;BME280;69983;42.370;-71.210;2023-08-01T03:14:27;101462.30;;;24.93;23.87
80629;BME280;69983;42.370;-71.210;2023-08-01T03:16:28;101462.37;;;24.15;23.90
80629;BME280;69983;42.370;-71.210;2023-08-01T03:18:28;101463.20;;;24.71;24.08
80629;BME280;69983;42.370;-71.210;2023-08-01T03:20:29;101467.64;;;24.90;23.85
80629;BME280;69983;42.370;-71.210;2023-08-01T03:22:29;101468.08;;;24.84;23.84
80629;BME280;69983;42.370;-71.210;2023-08-01T03:24:29;101470.74;;;25.14;23.72
80629;BME280;69983;42.370;-71.210;2023-08-01T03:26:30;101469.04;;;25.29;23.92
80629;BME280;69983;42.370;-71.210;2023-08-01T03:28:30;101473.90;;;25.26;23.86
80629;BME280;69983;42.370;-71.210;2023-08-01T03:30:32;101472.77;;;25.04;23.85
80629;BME280;69983;42.370;-71.210;2023-08-01T03:32:32;101472.20;;;24.99;23.75
80629;BME280;69983;42.370;-71.210;2023-08-01T03:34:32;101471.82;;;24.70;23.92
80629;BME280;69983;42.370;-71.210;2023-08-01T03:36:32;101474.67;;;24.22;23.88
80629;BME280;69983;42.370;-71.210;2023-08-01T03:38:33;101474.52;;;24.24;24.02
80629;BME280;69983;42.370;-71.210;2023-08-01T03:40:33;101475.25;;;24.67;23.82
80629;BME280;69983;42.370;-71.210;2023-08-01T03:42:34;101478.32;;;24.90;23.71
80629;BME280;69983;42.370;-71.210;2023-08-01T03:44:34;101483.06;;;25.05;23.72
80629;BME280;69983;42.370;-71.210;2023-08-01T03:46:35;101488.66;;;25.20;23.74
80629;BME280;69983;42.370;-71.210;2023-08-01T03:48:35;101490.44;;;25.24;23.83
80629;BME280;69983;42.370;-71.210;2023-08-01T03:50:36;101490.67;;;25.31;24.01
80629;BME280;69983;42.370;-71.210;2023-08-01T03:52:37;101488.80;;;25.08;23.82
80629;BME280;69983;42.370;-71.210;2023-08-01T03:54:38;101485.20;;;24.75;23.72
80629;BME280;69983;42.370;-71.210;2023-08-01T03:56:38;101483.66;;;24.73;23.76
80629;BME280;69983;42.370;-71.210;2023-08-01T03:58:38;101487.83;;;24.49;23.82
80629;BME280;69983;42.370;-71.210;2023-08-01T04:00:39;101485.34;;;24.72;23.82
80629;BME280;69983;42.370;-71.210;2023-08-01T04:02:40;101487.28;;;24.61;23.86
80629;BME280;69983;42.370;-71.210;2023-08-01T04:04:40;101489.77;;;24.78;23.85
80629;BME280;69983;42.370;-71.210;2023-08-01T04:06:40;101486.59;;;25.21;23.82
80629;BME280;69983;42.370;-71.210;2023-08-01T04:08:41;101488.02;;;24.94;23.95
80629;BME280;69983;42.370;-71.210;2023-08-01T04:10:41;101490.89;;;25.03;24.01
80629;BME280;69983;42.370;-71.210;2023-08-01T04:12:41;101492.36;;;25.09;24.02
80629;BME280;69983;42.370;-71.210;2023-08-01T04:14:41;101494.13;;;25.00;23.76
80629;BME280;69983;42.370;-71.210;2023-08-01T04:16:41;101494.74;;;24.57;23.80
80629;BME280;69983;42.370;-71.210;2023-08-01T04:18:42;101495.90;;;24.33;23.86
80629;BME280;69983;42.370;-71.210;2023-08-01T04:20:42;101497.45;;;24.33;24.05
80629;BME280;69983;42.370;-71.210;2023-08-01T04:22:43;101495.48;;;24.54;23.88
80629;BME280;69983;42.370;-71.210;2023-08-01T04:24:43;101495.74;;;24.86;23.70
80629;BME280;69983;42.370;-71.210;2023-08-01T04:26:43;101497.74;;;25.28;23.65
80629;BME280;69983;42.370;-71.210;2023-08-01T04:28:47;101503.14;;;24.99;23.58
80629;BME280;69983;42.370;-71.210;2023-08-01T04:30:49;101502.47;;;25.31;23.57
80629;BME280;69983;42.370;-71.210;2023-08-01T04:32:45;101506.78;;;25.33;23.70
80629;BME280;69983;42.370;-71.210;2023-08-01T04:34:47;101510.31;;;25.42;23.78
80629;BME280;69983;42.370;-71.210;2023-08-01T04:36:47;101510.63;;;24.80;23.63
80629;BME280;69983;42.370;-71.210;2023-08-01T04:38:46;101510.29;;;25.17;23.42
80629;BME280;69983;42.370;-71.210;2023-08-01T04:40:48;101508.06;;;24.91;23.42
80629;BME280;69983;42.370;-71.210;2023-08-01T04:42:48;101504.62;;;24.39;23.67
80629;BME280;69983;42.370;-71.210;2023-08-01T04:44:48;101509.72;;;24.83;23.61
80629;BME280;69983;42.370;-71.210;2023-08-01T04:46:48;101510.29;;;24.93;23.66
80629;BME280;69983;42.370;-71.210;2023-08-01T04:50:49;101509.07;;;25.02;23.47
80629;BME280;69983;42.370;-71.210;2023-08-01T04:52:50;101508.30;;;25.70;23.39
80629;BME280;69983;42.370;-71.210;2023-08-01T04:54:50;101508.79;;;25.67;23.49
80629;BME280;69983;42.370;-71.210;2023-08-01T04:56:51;101509.78;;;25.41;23.59
80629;BME280;69983;42.370;-71.210;2023-08-01T04:58:51;101510.51;;;25.87;23.48
80629;BME280;69983;42.370;-71.210;2023-08-01T05:00:52;101510.32;;;25.48;23.58
80629;BME280;69983;42.370;-71.210;2023-08-01T05:02:52;101511.35;;;25.45;23.51
80629;BME280;69983;42.370;-71.210;2023-08-01T05:04:52;101509.76;;;25.21;23.48
80629;BME280;69983;42.370;-71.210;2023-08-01T05:06:53;101505.37;;;24.20;23.66
80629;BME280;69983;42.370;-71.210;2023-08-01T05:08:55;101505.18;;;24.53;23.33
80629;BME280;69983;42.370;-71.210;2023-08-01T05:10:55;101507.40;;;24.91;23.18
80629;BME280;69983;42.370;-71.210;2023-08-01T05:12:56;101508.48;;;25.34;23.18
80629;BME280;69983;42.370;-71.210;2023-08-01T05:14:57;101511.91;;;25.19;23.27
80629;BME280;69983;42.370;-71.210;2023-08-01T05:18:57;101510.68;;;25.70;23.10
80629;BME280;69983;42.370;-71.210;2023-08-01T05:20:58;101509.80;;;25.73;23.22
80629;BME280;69983;42.370;-71.210;2023-08-01T05:24:58;101502.70;;;25.07;23.35
80629;BME280;69983;42.370;-71.210;2023-08-01T05:26:58;101499.34;;;25.08;23.06
80629;BME280;69983;42.370;-71.210;2023-08-01T05:29:00;101500.81;;;22.66;22.78
80629;BME280;69983;42.370;-71.210;2023-08-01T05:31:04;101498.12;;;23.06;22.02
80629;BME280;69983;42.370;-71.210;2023-08-01T05:33:02;101496.18;;;23.73;21.24
80629;BME280;69983;42.370;-71.210;2023-08-01T05:35:02;101494.23;;;24.14;20.84
80629;BME280;69983;42.370;-71.210;2023-08-01T05:37:05;101494.82;;;24.74;20.53
80629;BME280;69983;42.370;-71.210;2023-08-01T05:39:03;101497.18;;;26.52;20.35
80629;BME280;69983;42.370;-71.210;2023-08-01T05:41:03;101493.37;;;26.45;20.64
80629;BME280;69983;42.370;-71.210;2023-08-01T05:43:06;101492.06;;;25.86;20.98
80629;BME280;69983;42.370;-71.210;2023-08-01T05:45:11;101492.30;;;26.36;21.05
80629;BME280;69983;42.370;-71.210;2023-08-01T05:47:06;101490.66;;;26.14;20.98
80629;BME280;69983;42.370;-71.210;2023-08-01T05:49:05;101492.06;;;25.84;20.98
80629;BME280;69983;42.370;-71.210;2023-08-01T05:51:03;101492.55;;;26.56;21.27
80629;BME280;69983;42.370;-71.210;2023-08-01T05:53:04;101495.36;;;25.74;22.17
80629;BME280;69983;42.370;-71.210;2023-08-01T05:55:05;101495.34;;;25.28;22.43
80629;BME280;69983;42.370;-71.210;2023-08-01T05:57:05;101496.27;;;25.70;22.61
80629;BME280;69983;42.370;-71.210;2023-08-01T05:59:05;101500.99;;;25.40;22.77
80629;BME280;69983;42.370;-71.210;2023-08-01T06:01:06;101502.48;;;25.82;22.94
80629;BME280;69983;42.370;-71.210;2023-08-01T06:03:07;101504.60;;;25.55;23.07
80629;BME280;69983;42.370;-71.210;2023-08-01T06:05:08;101504.48;;;25.56;23.19
80629;BME280;69983;42.370;-71.210;2023-08-01T06:07:07;101502.28;;;25.59;23.14
80629;BME280;69983;42.370;-71.210;2023-08-01T06:09:08;101500.81;;;25.12;23.17
80629;BME280;69983;42.370;-71.210;2023-08-01T06:11:09;101497.91;;;25.05;22.97
80629;BME280;69983;42.370;-71.210;2023-08-01T06:13:10;101489.05;;;24.51;23.33
80629;BME280;69983;42.370;-71.210;2023-08-01T06:15:10;101493.72;;;25.01;23.18
80629;BME280;69983;42.370;-71.210;2023-08-01T06:17:10;101491.67;;;25.06;23.25
80629;BME280;69983;42.370;-71.210;2023-08-01T06:19:10;101491.75;;;25.23;23.24
80629;BME280;69983;42.370;-71.210;2023-08-01T06:21:11;101496.29;;;25.41;23.24
80629;BME280;69983;42.370;-71.210;2023-08-01T06:23:12;101496.19;;;25.42;23.28
80629;BME280;69983;42.370;-71.210;2023-08-01T06:25:12;101495.89;;;25.44;23.31
80629;BME280;69983;42.370;-71.210;2023-08-01T06:27:12;101495.72;;;25.35;23.57
80629;BME280;69983;42.370;-71.210;2023-08-01T06:29:13;101500.34;;;25.15;23.21
80629;BME280;69983;42.370;-71.210;2023-08-01T06:31:13;101495.72;;;25.13;23.15
80629;BME280;69983;42.370;-71.210;2023-08-01T06:33:14;101497.10;;;24.84;23.18
80629;BME280;69983;42.370;-71.210;2023-08-01T06:35:14;101495.06;;;24.66;23.53
80629;BME280;69983;42.370;-71.210;2023-08-01T06:37:15;101492.38;;;24.78;23.50
80629;BME280;69983;42.370;-71.210;2023-08-01T06:39:16;101491.93;;;24.91;23.51
80629;BME280;69983;42.370;-71.210;2023-08-01T06:41:16;101497.33;;;25.03;23.51
80629;BME280;69983;42.370;-71.210;2023-08-01T06:43:17;101498.27;;;25.11;23.52
80629;BME280;69983;42.370;-71.210;2023-08-01T06:45:17;101500.75;;;25.10;23.62
80629;BME280;69983;42.370;-71.210;2023-08-01T06:47:18;101503.30;;;25.12;23.68
80629;BME280;69983;42.370;-71.210;2023-08-01T06:49:18;101509.55;;;25.22;23.68
80629;BME280;69983;42.370;-71.210;2023-08-01T06:51:18;101507.24;;;25.12;23.64
80629;BME280;69983;42.370;-71.210;2023-08-01T06:53:19;101513.04;;;25.01;23.78
80629;BME280;69983;42.370;-71.210;2023-08-01T06:55:19;101515.60;;;25.20;23.89
80629;BME280;69983;42.370;-71.210;2023-08-01T06:57:19;101514.05;;;25.46;23.66
80629;BME280;69983;42.370;-71.210;2023-08-01T06:59:20;101516.17;;;25.14;23.53
80629;BME280;69983;42.370;-71.210;2023-08-01T07:01:20;101514.87;;;25.15;23.42
80629;BME280;69983;42.370;-71.210;2023-08-01T07:03:21;101513.01;;;24.57;23.43
80629;BME280;69983;42.370;-71.210;2023-08-01T07:05:21;101514.73;;;24.63;23.63
80629;BME280;69983;42.370;-71.210;2023-08-01T07:07:22;101515.22;;;24.52;23.81
80629;BME280;69983;42.370;-71.210;2023-08-01T07:09:22;101517.90;;;24.47;23.97
80629;BME280;69983;42.370;-71.210;2023-08-01T07:11:23;101519.16;;;25.16;23.89
80629;BME280;69983;42.370;-71.210;2023-08-01T07:13:24;101520.25;;;24.78;23.89
80629;BME280;69983;42.370;-71.210;2023-08-01T07:15:24;101522.96;;;24.82;23.93
80629;BME280;69983;42.370;-71.210;2023-08-01T07:17:24;101521.25;;;25.05;24.01
80629;BME280;69983;42.370;-71.210;2023-08-01T07:19:25;101524.17;;;24.87;24.04
80629;BME280;69983;42.370;-71.210;2023-08-01T07:21:25;101524.87;;;25.13;24.09
80629;BME280;69983;42.370;-71.210;2023-08-01T07:23:25;101520.77;;;25.11;24.17
80629;BME280;69983;42.370;-71.210;2023-08-01T07:25:25;101521.42;;;25.03;24.09
80629;BME280;69983;42.370;-71.210;2023-08-01T07:27:26;101520.08;;;25.60;23.84
80629;BME280;69983;42.370;-71.210;2023-08-01T07:29:26;101517.03;;;25.26;23.59
80629;BME280;69983;42.370;-71.210;2023-08-01T07:31:26;101518.34;;;24.62;23.69
80629;BME280;69983;42.370;-71.210;2023-08-01T07:33:26;101520.16;;;24.29;24.05
80629;BME280;69983;42.370;-71.210;2023-08-01T07:35:27;101522.13;;;24.56;23.96
80629;BME280;69983;42.370;-71.210;2023-08-01T07:37:27;101526.75;;;24.27;24.11
80629;BME280;69983;42.370;-71.210;2023-08-01T07:39:26;101526.15;;;24.85;24.14
80629;BME280;69983;42.370;-71.210;2023-08-01T07:41:27;101524.02;;;24.34;24.27
80629;BME280;69983;42.370;-71.210;2023-08-01T07:43:27;101525.01;;;24.61;24.34
80629;BME280;69983;42.370;-71.210;2023-08-01T07:45:27;101527.06;;;24.85;24.24
80629;BME280;69983;42.370;-71.210;2023-08-01T07:47:27;101528.14;;;24.60;24.34
80629;BME280;69983;42.370;-71.210;2023-08-01T07:49:28;101530.59;;;24.68;24.38
80629;BME280;69983;42.370;-71.210;2023-08-01T07:51:27;101532.74;;;24.72;24.42
80629;BME280;69983;42.370;-71.210;2023-08-01T07:53:28;101534.94;;;24.67;24.55
80629;BME280;69983;42.370;-71.210;2023-08-01T07:55:27;101535.83;;;24.85;24.68
80629;BME280;69983;42.370;-71.210;2023-08-01T07:57:27;101537.80;;;24.87;24.56
80629;BME280;69983;42.370;-71.210;2023-08-01T07:59:28;101541.00;;;24.91;24.17
80629;BME280;69983;42.370;-71.210;2023-08-01T08:01:28;101540.54;;;24.45;24.26
80629;BME280;69983;42.370;-71.210;2023-08-01T08:03:28;101542.66;;;24.40;23.95
80629;BME280;69983;42.370;-71.210;2023-08-01T08:05:28;101542.67;;;24.35;23.99
80629;BME280;69983;42.370;-71.210;2023-08-01T08:07:28;101541.46;;;24.66;24.22
80629;BME280;69983;42.370;-71.210;2023-08-01T08:09:28;101539.33;;;24.44;24.31
80629;BME280;69983;42.370;-71.210;2023-08-01T08:11:28;101540.12;;;24.32;24.59
80629;BME280;69983;42.370;-71.210;2023-08-01T08:13:29;101541.41;;;24.71;24.56
80629;BME280;69983;42.370;-71.210;2023-08-01T08:15:28;101543.29;;;24.81;24.54
80629;BME280;69983;42.370;-71.210;2023-08-01T08:17:29;101546.81;;;24.30;24.62
80629;BME280;69983;42.370;-71.210;2023-08-01T08:19:29;101550.49;;;24.72;24.55
80629;BME280;69983;42.370;-71.210;2023-08-01T08:21:29;101551.45;;;25.00;24.57
80629;BME280;69983;42.370;-71.210;2023-08-01T08:23:29;101554.49;;;25.16;24.40
80629;BME280;69983;42.370;-71.210;2023-08-01T08:25:29;101549.75;;;24.66;24.22
80629;BME280;69983;42.370;-71.210;2023-08-01T08:27:29;101559.00;;;24.27;24.19
80629;BME280;69983;42.370;-71.210;2023-08-01T08:29:30;101560.47;;;24.31;24.15
80629;BME280;69983;42.370;-71.210;2023-08-01T08:31:29;101564.92;;;24.29;24.38
80629;BME280;69983;42.370;-71.210;2023-08-01T08:33:30;101571.92;;;24.10;24.43
80629;BME280;69983;42.370;-71.210;2023-08-01T08:35:30;101573.96;;;24.35;24.53
80629;BME280;69983;42.370;-71.210;2023-08-01T08:37:30;101576.59;;;24.28;24.47
80629;BME280;69983;42.370;-71.210;2023-08-01T08:39:30;101581.45;;;24.32;24.51
80629;BME280;69983;42.370;-71.210;2023-08-01T08:41:33;101586.60;;;24.47;24.49
80629;BME280;69983;42.370;-71.210;2023-08-01T08:43:32;101587.14;;;24.81;24.47
80629;BME280;69983;42.370;-71.210;2023-08-01T08:45:34;101588.25;;;24.65;24.47
80629;BME280;69983;42.370;-71.210;2023-08-01T08:47:31;101591.09;;;24.42;24.53
80629;BME280;69983;42.370;-71.210;2023-08-01T08:49:32;101592.45;;;24.77;24.50
80629;BME280;69983;42.370;-71.210;2023-08-01T08:51:31;101595.96;;;24.47;24.62
80629;BME280;69983;42.370;-71.210;2023-08-01T08:53:32;101591.82;;;24.84;24.25
80629;BME280;69983;42.370;-71.210;2023-08-01T08:55:31;101593.71;;;24.60;24.05
80629;BME280;69983;42.370;-71.210;2023-08-01T08:57:31;101596.27;;;24.02;24.11
80629;BME280;69983;42.370;-71.210;2023-08-01T08:59:31;101598.81;;;24.14;24.34
80629;BME280;69983;42.370;-71.210;2023-08-01T09:01:33;101600.92;;;24.24;24.34
80629;BME280;69983;42.370;-71.210;2023-08-01T09:03:32;101602.88;;;24.18;24.49
80629;BME280;69983;42.370;-71.210;2023-08-01T09:05:37;101608.17;;;24.34;24.63
80629;BME280;69983;42.370;-71.210;2023-08-01T09:07:34;101608.40;;;24.31;24.54
80629;BME280;69983;42.370;-71.210;2023-08-01T09:09:32;101610.23;;;24.68;24.55
80629;BME280;69983;42.370;-71.210;2023-08-01T09:11:40;101615.17;;;24.54;24.51
80629;BME280;69983;42.370;-71.210;2023-08-01T09:13:32;101619.36;;;24.36;24.50
80629;BME280;69983;42.370;-71.210;2023-08-01T09:15:33;101624.17;;;24.47;24.67
80629;BME280;69983;42.370;-71.210;2023-08-01T09:17:32;101623.22;;;24.18;24.79
80629;BME280;69983;42.370;-71.210;2023-08-01T09:19:32;101620.74;;;24.75;24.75
80629;BME280;69983;42.370;-71.210;2023-08-01T09:21:33;101622.04;;;24.86;24.71
80629;BME280;69983;42.370;-71.210;2023-08-01T09:23:32;101624.65;;;24.44;24.68
80629;BME280;69983;42.370;-71.210;2023-08-01T09:25:33;101626.36;;;24.58;24.83
80629;BME280;69983;42.370;-71.210;2023-08-01T09:27:34;101629.59;;;24.73;24.72
80629;BME280;69983;42.370;-71.210;2023-08-01T09:29:33;101631.48;;;24.64;24.35
80629;BME280;69983;42.370;-71.210;2023-08-01T09:31:34;101635.96;;;24.29;24.28
80629;BME280;69983;42.370;-71.210;2023-08-01T09:33:39;101637.51;;;24.38;24.33
80629;BME280;69983;42.370;-71.210;2023-08-01T09:35:39;101643.14;;;23.90;24.44
80629;BME280;69983;42.370;-71.210;2023-08-01T09:37:40;101643.81;;;24.25;24.43
80629;BME280;69983;42.370;-71.210;2023-08-01T09:39:34;101644.89;;;24.23;24.53
80629;BME280;69983;42.370;-71.210;2023-08-01T09:41:33;101646.32;;;24.27;24.60
80629;BME280;69983;42.370;-71.210;2023-08-01T09:43:35;101654.06;;;24.24;24.70
80629;BME280;69983;42.370;-71.210;2023-08-01T09:45:33;101653.11;;;24.58;24.67
80629;BME280;69983;42.370;-71.210;2023-08-01T09:47:36;101654.14;;;24.55;24.57
80629;BME280;69983;42.370;-71.210;2023-08-01T09:49:34;101657.00;;;24.82;24.62
80629;BME280;69983;42.370;-71.210;2023-08-01T09:51:34;101659.71;;;24.58;24.66
80629;BME280;69983;42.370;-71.210;2023-08-01T09:53:35;101663.28;;;24.57;24.72
80629;BME280;69983;42.370;-71.210;2023-08-01T09:55:35;101666.02;;;24.54;24.81
80629;BME280;69983;42.370;-71.210;2023-08-01T09:57:37;101668.06;;;24.85;24.79
80629;BME280;69983;42.370;-71.210;2023-08-01T09:59:34;101670.99;;;24.39;24.83
80629;BME280;69983;42.370;-71.210;2023-08-01T10:01:35;101676.64;;;24.64;24.85
80629;BME280;69983;42.370;-71.210;2023-08-01T10:03:35;101678.78;;;24.53;25.04
80629;BME280;69983;42.370;-71.210;2023-08-01T10:05:36;101685.75;;;24.70;24.38
80629;BME280;69983;42.370;-71.210;2023-08-01T10:07:35;101689.02;;;24.46;24.17
80629;BME280;69983;42.370;-71.210;2023-08-01T10:09:35;101689.58;;;24.21;24.41
80629;BME280;69983;42.370;-71.210;2023-08-01T10:11:35;101690.03;;;24.26;24.39
80629;BME280;69983;42.370;-71.210;2023-08-01T10:13:35;101694.93;;;24.10;24.61
80629;BME280;69983;42.370;-71.210;2023-08-01T10:15:35;101696.99;;;24.40;24.63
80629;BME280;69983;42.370;-71.210;2023-08-01T10:17:36;101703.67;;;24.52;24.61
80629;BME280;69983;42.370;-71.210;2023-08-01T10:19:35;101704.64;;;24.51;24.68